sensor_id;sensor_type;location;lat;lon;timestamp;pressure;altitude;pressure_sealevel;temperature;humidity
54554;BME280;40450;55.848;-3.572;2023-01-08T00:01:38;95887.17;;;0.44;100.00
54554;BME280;40450;55.848;-3.572;2023-01-08T00:04:09;95897.47;;;0.38;100.00
54554;BME280;40450;55.848;-3.572;2023-01-08T00:06:39;95894.43;;;0.81;100.00
54554;BME280;40450;55.848;-3.572;2023-01-08T00:09:10;95904.65;;;0.95;100.00
54554;BME280;40450;55.848;-3.572;2023-01-08T00:11:40;95912.24;;;1.42;99.22
54554;BME280;40450;55.848;-3.572;2023-01-08T00:14:11;95913.25;;;1.38;98.97
54554;BME280;40450;55.848;-3.572;2023-01-08T00:16:41;95919.55;;;1.66;98.81
54554;BME280;40450;55.848;-3.572;2023-01-08T00:19:11;95930.67;;;1.58;98.79
54554;BME280;40450;55.848;-3.572;2023-01-08T00:21:42;95920.08;;;0.99;99.40
54554;BME280;40450;55.848;-3.572;2023-01-08T00:24:12;95928.44;;;0.93;99.72
54554;BME280;40450;55.848;-3.572;2023-01-08T00:26:42;95930.36;;;1.16;99.31
54554;BME280;40450;55.848;-3.572;2023-01-08T00:29:13;95940.93;;;0.59;100.00
54554;BME280;40450;55.848;-3.572;2023-01-08T00:31:43;95943.75;;;1.00;99.45
54554;BME280;40450;55.848;-3.572;2023-01-08T00:34:13;95953.81;;;1.13;99.47
54554;BME280;40450;55.848;-3.572;2023-01-08T00:36:44;95955.91;;;1.12;99.06
54554;BME280;40450;55.848;-3.572;2023-01-08T00:39:15;95948.87;;;1.30;98.74
54554;BME280;40450;55.848;-3.572;2023-01-08T00:41:45;95952.45;;;1.51;98.46
54554;BME280;40450;55.848;-3.572;2023-01-08T00:44:15;95946.33;;;1.37;98.93
54554;BME280;40450;55.848;-3.572;2023-01-08T00:46:45;95954.57;;;1.42;98.74
54554;BME280;40450;55.848;-3.572;2023-01-08T00:49:15;95962.58;;;0.97;99.50
54554;BME280;40450;55.848;-3.572;2023-01-08T00:51:46;95966.65;;;0.91;99.39
54554;BME280;40450;55.848;-3.572;2023-01-08T00:54:16;95962.65;;;1.59;99.04
54554;BME280;40450;55.848;-3.572;2023-01-08T00:56:47;95962.26;;;1.45;98.99
54554;BME280;40450;55.848;-3.572;2023-01-08T00:59:17;95958.87;;;1.35;98.87
54554;BME280;40450;55.848;-3.572;2023-01-08T01:01:48;95961.10;;;1.61;98.66
54554;BME280;40450;55.848;-3.572;2023-01-08T01:04:18;95966.09;;;1.53;98.81
54554;BME280;40450;55.848;-3.572;2023-01-08T01:06:48;95976.95;;;1.20;99.06
54554;BME280;40450;55.848;-3.572;2023-01-08T01:09:19;95970.32;;;1.40;99.15
54554;BME280;40450;55.848;-3.572;2023-01-08T01:11:49;95980.62;;;1.85;98.58
54554;BME280;40450;55.848;-3.572;2023-01-08T01:14:19;95974.63;;;1.42;98.59
54554;BME280;40450;55.848;-3.572;2023-01-08T01:16:49;95984.64;;;1.22;98.98
54554;BME280;40450;55.848;-3.572;2023-01-08T01:19:19;95990.84;;;0.77;99.46
54554;BME280;40450;55.848;-3.572;2023-01-08T01:21:50;95990.34;;;1.31;98.93
54554;BME280;40450;55.848;-3.572;2023-01-08T01:24:20;95984.35;;;0.54;99.89
54554;BME280;40450;55.848;-3.572;2023-01-08T01:26:50;95985.58;;;0.59;99.93
54554;BME280;40450;55.848;-3.572;2023-01-08T01:29:21;95981.18;;;1.23;98.62
54554;BME280;40450;55.848;-3.572;2023-01-08T01:31:51;95992.21;;;1.22;98.99
54554;BME280;40450;55.848;-3.572;2023-01-08T01:34:22;95985.86;;;1.24;98.31
54554;BME280;40450;55.848;-3.572;2023-01-08T01:36:52;95979.96;;;1.26;98.13
54554;BME280;40450;55.848;-3.572;2023-01-08T01:39:22;95991.05;;;0.74;98.83
54554;BME280;40450;55.848;-3.572;2023-01-08T01:41:53;95989.21;;;0.24;99.86
54554;BME280;40450;55.848;-3.572;2023-01-08T01:46:54;96003.43;;;0.20;100.00
54554;BME280;40450;55.848;-3.572;2023-01-08T01:49:24;95997.34;;;0.42;99.41
54554;BME280;40450;55.848;-3.572;2023-01-08T01:51:56;96004.52;;;0.28;99.64
54554;BME280;40450;55.848;-3.572;2023-01-08T01:54:25;96026.35;;;0.58;99.15
54554;BME280;40450;55.848;-3.572;2023-01-08T01:56:55;96019.14;;;1.02;98.61
54554;BME280;40450;55.848;-3.572;2023-01-08T01:59:25;96020.32;;;1.16;98.20
54554;BME280;40450;55.848;-3.572;2023-01-08T02:01:55;96028.85;;;1.09;98.18
54554;BME280;40450;55.848;-3.572;2023-01-08T02:04:26;96035.42;;;1.69;96.88
54554;BME280;40450;55.848;-3.572;2023-01-08T02:07:00;96045.58;;;1.68;96.95
54554;BME280;40450;55.848;-3.572;2023-01-08T02:09:36;96041.61;;;1.00;97.96
54554;BME280;40450;55.848;-3.572;2023-01-08T02:12:02;96044.24;;;0.84;98.41
54554;BME280;40450;55.848;-3.572;2023-01-08T02:14:32;96056.67;;;1.01;98.27
54554;BME280;40450;55.848;-3.572;2023-01-08T02:17:00;96052.91;;;1.22;97.85
54554;BME280;40450;55.848;-3.572;2023-01-08T02:19:36;96057.56;;;1.99;96.52
54554;BME280;40450;55.848;-3.572;2023-01-08T02:22:07;96063.72;;;2.16;96.24
54554;BME280;40450;55.848;-3.572;2023-01-08T02:24:41;96078.81;;;1.76;96.15
54554;BME280;40450;55.848;-3.572;2023-01-08T02:27:02;96079.74;;;2.21;95.87
54554;BME280;40450;55.848;-3.572;2023-01-08T02:29:30;96084.52;;;1.81;96.01
54554;BME280;40450;55.848;-3.572;2023-01-08T02:32:01;96080.89;;;2.11;96.10
54554;BME280;40450;55.848;-3.572;2023-01-08T02:34:31;96085.30;;;2.21;95.76
54554;BME280;40450;55.848;-3.572;2023-01-08T02:37:01;96087.05;;;2.23;95.76
54554;BME280;40450;55.848;-3.572;2023-01-08T02:39:42;96087.21;;;1.57;96.19
54554;BME280;40450;55.848;-3.572;2023-01-08T02:42:06;96087.13;;;2.07;95.65
54554;BME280;40450;55.848;-3.572;2023-01-08T02:44:40;96080.99;;;1.67;96.35
54554;BME280;40450;55.848;-3.572;2023-01-08T02:47:05;96083.96;;;1.49;96.46
54554;BME280;40450;55.848;-3.572;2023-01-08T02:49:35;96084.11;;;1.31;96.39
54554;BME280;40450;55.848;-3.572;2023-01-08T02:52:04;96085.35;;;0.81;97.36
54554;BME280;40450;55.848;-3.572;2023-01-08T02:54:34;96083.05;;;1.13;97.07
54554;BME280;40450;55.848;-3.572;2023-01-08T02:57:10;96084.09;;;0.43;97.81
54554;BME280;40450;55.848;-3.572;2023-01-08T02:59:34;96087.55;;;0.62;97.77
54554;BME280;40450;55.848;-3.572;2023-01-08T03:02:04;96085.58;;;0.55;97.79
54554;BME280;40450;55.848;-3.572;2023-01-08T03:04:36;96086.98;;;0.56;97.84
54554;BME280;40450;55.848;-3.572;2023-01-08T03:07:04;96074.55;;;0.43;97.85
54554;BME280;40450;55.848;-3.572;2023-01-08T03:09:35;96071.40;;;0.55;97.43
54554;BME280;40450;55.848;-3.572;2023-01-08T03:12:09;96071.99;;;0.49;97.72
54554;BME280;40450;55.848;-3.572;2023-01-08T03:14:37;96073.29;;;0.57;97.81
54554;BME280;40450;55.848;-3.572;2023-01-08T03:17:08;96076.89;;;0.39;97.78
54554;BME280;40450;55.848;-3.572;2023-01-08T03:19:41;96069.78;;;0.63;97.51
54554;BME280;40450;55.848;-3.572;2023-01-08T03:22:08;96074.65;;;0.87;96.96
54554;BME280;40450;55.848;-3.572;2023-01-08T03:24:38;96070.99;;;0.43;97.50
54554;BME280;40450;55.848;-3.572;2023-01-08T03:27:09;96069.89;;;-0.00;97.64
54554;BME280;40450;55.848;-3.572;2023-01-08T03:29:38;96073.40;;;0.64;96.92
54554;BME280;40450;55.848;-3.572;2023-01-08T03:32:12;96068.56;;;0.67;96.71
54554;BME280;40450;55.848;-3.572;2023-01-08T03:34:40;96067.59;;;1.22;95.93
54554;BME280;40450;55.848;-3.572;2023-01-08T03:37:09;96068.62;;;1.03;95.81
54554;BME280;40450;55.848;-3.572;2023-01-08T03:39:42;96074.49;;;0.95;95.76
54554;BME280;40450;55.848;-3.572;2023-01-08T03:42:13;96074.76;;;1.02;95.47
54554;BME280;40450;55.848;-3.572;2023-01-08T03:44:39;96061.84;;;0.47;96.08
54554;BME280;40450;55.848;-3.572;2023-01-08T03:47:10;96069.52;;;0.82;96.13
54554;BME280;40450;55.848;-3.572;2023-01-08T03:49:40;96064.57;;;1.26;95.14
54554;BME280;40450;55.848;-3.572;2023-01-08T03:54:40;96064.61;;;1.12;94.95
54554;BME280;40450;55.848;-3.572;2023-01-08T03:57:10;96067.68;;;0.39;95.98
54554;BME280;40450;55.848;-3.572;2023-01-08T03:59:41;96071.54;;;0.49;96.09
54554;BME280;40450;55.848;-3.572;2023-01-08T04:02:11;96066.58;;;0.94;95.14
54554;BME280;40450;55.848;-3.572;2023-01-08T04:04:42;96066.77;;;1.46;94.31
54554;BME280;40450;55.848;-3.572;2023-01-08T04:07:12;96067.86;;;1.07;94.97
54554;BME280;40450;55.848;-3.572;2023-01-08T04:09:42;96066.95;;;0.43;96.30
54554;BME280;40450;55.848;-3.572;2023-01-08T04:12:12;96060.77;;;0.50;96.45
54554;BME280;40450;55.848;-3.572;2023-01-08T04:14:43;96064.98;;;0.70;96.24
54554;BME280;40450;55.848;-3.572;2023-01-08T04:17:13;96064.01;;;1.07;95.42
54554;BME280;40450;55.848;-3.572;2023-01-08T04:19:44;96068.24;;;0.94;95.15
54554;BME280;40450;55.848;-3.572;2023-01-08T04:22:14;96067.85;;;0.73;95.97
54554;BME280;40450;55.848;-3.572;2023-01-08T04:24:45;96066.29;;;0.81;96.30
54554;BME280;40450;55.848;-3.572;2023-01-08T04:27:15;96071.42;;;0.96;95.68
54554;BME280;40450;55.848;-3.572;2023-01-08T04:29:45;96066.84;;;0.30;96.96
54554;BME280;40450;55.848;-3.572;2023-01-08T04:32:17;96065.64;;;0.30;96.91
54554;BME280;40450;55.848;-3.572;2023-01-08T04:34:46;96073.37;;;0.50;97.27
54554;BME280;40450;55.848;-3.572;2023-01-08T04:37:17;96070.61;;;0.92;96.24
54554;BME280;40450;55.848;-3.572;2023-01-08T04:39:47;96081.51;;;1.05;95.97
54554;BME280;40450;55.848;-3.572;2023-01-08T04:42:17;96078.63;;;1.95;94.63
54554;BME280;40450;55.848;-3.572;2023-01-08T04:44:47;96079.34;;;1.21;95.51
54554;BME280;40450;55.848;-3.572;2023-01-08T04:47:17;96082.62;;;1.79;94.68
54554;BME280;40450;55.848;-3.572;2023-01-08T04:49:48;96081.43;;;1.85;94.42
54554;BME280;40450;55.848;-3.572;2023-01-08T04:52:18;96085.08;;;1.46;94.98
54554;BME280;40450;55.848;-3.572;2023-01-08T04:54:48;96091.98;;;1.14;95.47
54554;BME280;40450;55.848;-3.572;2023-01-08T04:57:18;96088.98;;;1.25;95.70
54554;BME280;40450;55.848;-3.572;2023-01-08T04:59:49;96092.30;;;1.21;96.01
54554;BME280;40450;55.848;-3.572;2023-01-08T05:02:19;96088.32;;;2.09;94.54
54554;BME280;40450;55.848;-3.572;2023-01-08T05:04:49;96084.99;;;2.34;93.41
54554;BME280;40450;55.848;-3.572;2023-01-08T05:07:19;96087.46;;;1.89;94.27
54554;BME280;40450;55.848;-3.572;2023-01-08T05:09:50;96093.08;;;2.02;93.86
54554;BME280;40450;55.848;-3.572;2023-01-08T05:12:20;96087.85;;;1.69;94.78
54554;BME280;40450;55.848;-3.572;2023-01-08T05:14:50;96076.75;;;2.05;94.10
54554;BME280;40450;55.848;-3.572;2023-01-08T05:17:21;96060.70;;;1.42;94.90
54554;BME280;40450;55.848;-3.572;2023-01-08T05:19:51;96060.40;;;0.85;95.96
54554;BME280;40450;55.848;-3.572;2023-01-08T05:22:21;96053.35;;;0.65;96.06
54554;BME280;40450;55.848;-3.572;2023-01-08T05:24:52;96048.89;;;-0.17;97.41
54554;BME280;40450;55.848;-3.572;2023-01-08T05:27:22;96044.12;;;-0.26;97.53
54554;BME280;40450;55.848;-3.572;2023-01-08T05:29:52;96049.25;;;-0.04;96.97
54554;BME280;40450;55.848;-3.572;2023-01-08T05:32:22;96043.97;;;-0.18;96.95
54554;BME280;40450;55.848;-3.572;2023-01-08T05:34:53;96045.95;;;-0.01;96.72
54554;BME280;40450;55.848;-3.572;2023-01-08T05:37:23;96044.85;;;-0.41;97.04
54554;BME280;40450;55.848;-3.572;2023-01-08T05:39:53;96048.62;;;-0.49;97.04
54554;BME280;40450;55.848;-3.572;2023-01-08T05:42:24;96048.70;;;-0.05;96.13
54554;BME280;40450;55.848;-3.572;2023-01-08T05:44:54;96050.37;;;0.09;95.94
54554;BME280;40450;55.848;-3.572;2023-01-08T05:47:28;96054.99;;;0.28;95.89
54554;BME280;40450;55.848;-3.572;2023-01-08T05:49:55;96052.76;;;0.21;95.90
54554;BME280;40450;55.848;-3.572;2023-01-08T05:52:26;96053.48;;;1.16;94.38
54554;BME280;40450;55.848;-3.572;2023-01-08T05:54:56;96065.72;;;1.27;93.86
54554;BME280;40450;55.848;-3.572;2023-01-08T05:57:26;96064.47;;;0.94;94.48
54554;BME280;40450;55.848;-3.572;2023-01-08T05:59:56;96069.46;;;0.99;94.48
54554;BME280;40450;55.848;-3.572;2023-01-08T06:02:27;96069.16;;;0.77;94.99
54554;BME280;40450;55.848;-3.572;2023-01-08T06:04:57;96069.08;;;0.60;95.07
54554;BME280;40450;55.848;-3.572;2023-01-08T06:07:27;96071.44;;;0.37;95.97
54554;BME280;40450;55.848;-3.572;2023-01-08T06:09:58;96067.19;;;0.97;94.61
54554;BME280;40450;55.848;-3.572;2023-01-08T06:12:28;96065.32;;;1.21;94.36
54554;BME280;40450;55.848;-3.572;2023-01-08T06:14:59;96066.38;;;1.59;93.70
54554;BME280;40450;55.848;-3.572;2023-01-08T06:17:29;96066.42;;;1.82;92.96
54554;BME280;40450;55.848;-3.572;2023-01-08T06:19:59;96067.73;;;0.91;94.87
54554;BME280;40450;55.848;-3.572;2023-01-08T06:22:29;96055.49;;;1.47;94.12
54554;BME280;40450;55.848;-3.572;2023-01-08T06:25:00;96055.46;;;1.52;94.02
54554;BME280;40450;55.848;-3.572;2023-01-08T06:27:30;96059.76;;;0.94;95.01
54554;BME280;40450;55.848;-3.572;2023-01-08T06:30:00;96060.32;;;0.40;95.96
54554;BME280;40450;55.848;-3.572;2023-01-08T06:32:31;96064.67;;;0.09;96.86
54554;BME280;40450;55.848;-3.572;2023-01-08T06:35:01;96067.83;;;0.58;96.13
54554;BME280;40450;55.848;-3.572;2023-01-08T06:37:32;96074.37;;;0.47;96.35
54554;BME280;40450;55.848;-3.572;2023-01-08T06:40:03;96065.38;;;-0.28;97.59
54554;BME280;40450;55.848;-3.572;2023-01-08T06:42:32;96062.12;;;-0.22;97.56
54554;BME280;40450;55.848;-3.572;2023-01-08T06:45:04;96065.93;;;-0.72;98.35
54554;BME280;40450;55.848;-3.572;2023-01-08T06:47:34;96058.73;;;-0.76;98.42
54554;BME280;40450;55.848;-3.572;2023-01-08T06:50:04;96057.52;;;-0.06;97.65
54554;BME280;40450;55.848;-3.572;2023-01-08T06:52:34;96051.58;;;0.34;96.44
54554;BME280;40450;55.848;-3.572;2023-01-08T06:55:05;96053.26;;;-0.17;97.13
54554;BME280;40450;55.848;-3.572;2023-01-08T06:57:35;96041.87;;;0.25;96.64
54554;BME280;40450;55.848;-3.572;2023-01-08T07:00:07;96047.79;;;-0.38;97.55
54554;BME280;40450;55.848;-3.572;2023-01-08T07:02:36;96047.31;;;-0.57;97.86
54554;BME280;40450;55.848;-3.572;2023-01-08T07:05:07;96055.11;;;-0.48;97.73
54554;BME280;40450;55.848;-3.572;2023-01-08T07:07:37;96051.53;;;-0.88;98.37
54554;BME280;40450;55.848;-3.572;2023-01-08T07:10:07;96047.18;;;-0.98;98.45
54554;BME280;40450;55.848;-3.572;2023-01-08T07:12:37;96058.97;;;-0.56;98.03
54554;BME280;40450;55.848;-3.572;2023-01-08T07:15:08;96059.97;;;-0.84;98.16
54554;BME280;40450;55.848;-3.572;2023-01-08T07:17:37;96059.87;;;-0.58;98.02
54554;BME280;40450;55.848;-3.572;2023-01-08T07:20:09;96065.09;;;0.15;96.84
54554;BME280;40450;55.848;-3.572;2023-01-08T07:22:39;96066.37;;;-0.03;96.84
54554;BME280;40450;55.848;-3.572;2023-01-08T07:25:09;96058.22;;;-0.16;97.29
54554;BME280;40450;55.848;-3.572;2023-01-08T07:27:39;96062.52;;;-0.68;97.93
54554;BME280;40450;55.848;-3.572;2023-01-08T07:30:10;96072.30;;;-0.90;98.48
54554;BME280;40450;55.848;-3.572;2023-01-08T07:32:40;96069.22;;;-1.06;98.81
54554;BME280;40450;55.848;-3.572;2023-01-08T07:35:10;96070.29;;;-0.44;97.90
54554;BME280;40450;55.848;-3.572;2023-01-08T07:37:42;96066.92;;;-0.74;98.15
54554;BME280;40450;55.848;-3.572;2023-01-08T07:40:11;96073.90;;;-0.53;97.87
54554;BME280;40450;55.848;-3.572;2023-01-08T07:42:42;96076.14;;;-0.38;97.50
54554;BME280;40450;55.848;-3.572;2023-01-08T07:45:12;96076.88;;;-0.22;97.00
54554;BME280;40450;55.848;-3.572;2023-01-08T07:47:42;96076.82;;;-0.68;97.67
54554;BME280;40450;55.848;-3.572;2023-01-08T07:50:12;96070.69;;;-0.45;97.61
54554;BME280;40450;55.848;-3.572;2023-01-08T07:52:43;96073.97;;;-0.38;97.65
54554;BME280;40450;55.848;-3.572;2023-01-08T07:55:13;96068.59;;;-0.59;98.03
54554;BME280;40450;55.848;-3.572;2023-01-08T07:57:43;96070.27;;;-0.42;97.77
54554;BME280;40450;55.848;-3.572;2023-01-08T08:00:14;96070.12;;;-0.09;97.48
54554;BME280;40450;55.848;-3.572;2023-01-08T08:02:44;96063.78;;;0.25;96.88
54554;BME280;40450;55.848;-3.572;2023-01-08T08:05:15;96051.99;;;-0.20;96.94
54554;BME280;40450;55.848;-3.572;2023-01-08T08:07:44;96042.00;;;-0.34;97.21
54554;BME280;40450;55.848;-3.572;2023-01-08T08:10:15;96044.98;;;-0.40;97.13
54554;BME280;40450;55.848;-3.572;2023-01-08T08:12:45;96039.01;;;-0.07;96.39
54554;BME280;40450;55.848;-3.572;2023-01-08T08:15:16;96055.40;;;-0.78;97.74
54554;BME280;40450;55.848;-3.572;2023-01-08T08:17:47;96048.37;;;-0.74;97.86
54554;BME280;40450;55.848;-3.572;2023-01-08T08:20:18;96049.48;;;-0.82;97.57
54554;BME280;40450;55.848;-3.572;2023-01-08T08:22:47;96045.94;;;-0.55;97.05
54554;BME280;40450;55.848;-3.572;2023-01-08T08:25:18;96049.33;;;-0.58;96.95
54554;BME280;40450;55.848;-3.572;2023-01-08T08:27:48;96055.76;;;-0.72;97.47
54554;BME280;40450;55.848;-3.572;2023-01-08T08:30:18;96051.83;;;-0.76;97.22
54554;BME280;40450;55.848;-3.572;2023-01-08T08:32:49;96053.93;;;-0.76;97.24
54554;BME280;40450;55.848;-3.572;2023-01-08T08:35:19;96060.22;;;-0.41;96.82
54554;BME280;40450;55.848;-3.572;2023-01-08T08:37:50;96055.44;;;-0.23;96.59
54554;BME280;40450;55.848;-3.572;2023-01-08T08:40:20;96047.28;;;0.19;95.86
54554;BME280;40450;55.848;-3.572;2023-01-08T08:42:55;96041.60;;;-0.11;96.36
54554;BME280;40450;55.848;-3.572;2023-01-08T08:45:21;96044.06;;;-0.42;96.70
54554;BME280;40450;55.848;-3.572;2023-01-08T08:47:51;96031.49;;;-0.74;97.30
54554;BME280;40450;55.848;-3.572;2023-01-08T08:50:22;96032.39;;;-0.34;96.69
54554;BME280;40450;55.848;-3.572;2023-01-08T08:52:57;96037.61;;;-0.01;96.21
54554;BME280;40450;55.848;-3.572;2023-01-08T08:55:22;96031.60;;;-0.56;97.20
54554;BME280;40450;55.848;-3.572;2023-01-08T08:57:53;96023.62;;;-0.30;96.82
54554;BME280;40450;55.848;-3.572;2023-01-08T09:00:23;96026.94;;;-0.45;96.91
54554;BME280;40450;55.848;-3.572;2023-01-08T09:02:53;96033.41;;;-0.02;96.62
54554;BME280;40450;55.848;-3.572;2023-01-08T09:05:23;96035.37;;;0.07;96.18
54554;BME280;40450;55.848;-3.572;2023-01-08T09:07:54;96035.14;;;0.47;95.54
54554;BME280;40450;55.848;-3.572;2023-01-08T09:10:25;96037.63;;;-0.04;96.35
54554;BME280;40450;55.848;-3.572;2023-01-08T09:12:55;96045.76;;;0.31;95.77
54554;BME280;40450;55.848;-3.572;2023-01-08T09:15:25;96043.64;;;0.71;95.47
54554;BME280;40450;55.848;-3.572;2023-01-08T09:17:56;96031.47;;;0.49;95.45
54554;BME280;40450;55.848;-3.572;2023-01-08T09:20:26;96040.22;;;0.60;95.59
54554;BME280;40450;55.848;-3.572;2023-01-08T09:22:57;96050.58;;;0.37;96.56
54554;BME280;40450;55.848;-3.572;2023-01-08T09:25:26;96051.92;;;0.40;97.58
54554;BME280;40450;55.848;-3.572;2023-01-08T09:27:59;96047.68;;;1.32;97.08
54554;BME280;40450;55.848;-3.572;2023-01-08T09:30:28;96038.95;;;0.32;98.70
54554;BME280;40450;55.848;-3.572;2023-01-08T09:32:59;96037.16;;;0.35;99.20
54554;BME280;40450;55.848;-3.572;2023-01-08T09:35:28;96035.77;;;0.22;99.38
54554;BME280;40450;55.848;-3.572;2023-01-08T09:37:59;96028.52;;;-0.25;99.81
54554;BME280;40450;55.848;-3.572;2023-01-08T09:40:32;96021.17;;;-0.46;100.00
54554;BME280;40450;55.848;-3.572;2023-01-08T09:43:00;96020.88;;;0.05;100.00
54554;BME280;40450;55.848;-3.572;2023-01-08T09:45:30;96018.50;;;-0.53;100.00
54554;BME280;40450;55.848;-3.572;2023-01-08T09:48:02;96030.14;;;-0.63;100.00
54554;BME280;40450;55.848;-3.572;2023-01-08T09:50:30;96015.99;;;-0.48;100.00
54554;BME280;40450;55.848;-3.572;2023-01-08T09:53:01;96017.09;;;-0.16;100.00
54554;BME280;40450;55.848;-3.572;2023-01-08T09:55:33;96026.58;;;0.41;100.00
54554;BME280;40450;55.848;-3.572;2023-01-08T09:58:02;96027.39;;;-0.56;100.00
54554;BME280;40450;55.848;-3.572;2023-01-08T10:00:33;96023.45;;;-0.20;100.00
54554;BME280;40450;55.848;-3.572;2023-01-08T10:03:02;96019.51;;;0.12;100.00
54554;BME280;40450;55.848;-3.572;2023-01-08T10:05:33;96022.65;;;-0.00;100.00
54554;BME280;40450;55.848;-3.572;2023-01-08T10:08:03;96019.03;;;-0.34;100.00
54554;BME280;40450;55.848;-3.572;2023-01-08T10:10:34;96012.77;;;0.19;100.00
54554;BME280;40450;55.848;-3.572;2023-01-08T10:13:04;96000.98;;;0.09;100.00
54554;BME280;40450;55.848;-3.572;2023-01-08T10:15:34;96001.70;;;0.68;99.98
54554;BME280;40450;55.848;-3.572;2023-01-08T10:18:06;96005.29;;;1.07;99.62
54554;BME280;40450;55.848;-3.572;2023-01-08T10:20:35;96026.60;;;1.68;98.83
54554;BME280;40450;55.848;-3.572;2023-01-08T10:23:10;96022.48;;;2.14;97.92
54554;BME280;40450;55.848;-3.572;2023-01-08T10:28:14;96030.04;;;1.96;97.66
54554;BME280;40450;55.848;-3.572;2023-01-08T10:30:37;96019.33;;;2.46;97.11
54554;BME280;40450;55.848;-3.572;2023-01-08T10:33:11;96022.74;;;1.95;97.17
54554;BME280;40450;55.848;-3.572;2023-01-08T10:35:38;96021.60;;;1.96;97.01
54554;BME280;40450;55.848;-3.572;2023-01-08T10:40:40;96026.32;;;3.64;95.22
54554;BME280;40450;55.848;-3.572;2023-01-08T10:43:14;96034.65;;;3.85;94.01
54554;BME280;40450;55.848;-3.572;2023-01-08T10:45:38;96043.48;;;3.76;93.32
54554;BME280;40450;55.848;-3.572;2023-01-08T10:48:16;96059.67;;;3.58;93.83
54554;BME280;40450;55.848;-3.572;2023-01-08T10:50:39;96072.70;;;2.33;95.57
54554;BME280;40450;55.848;-3.572;2023-01-08T10:53:20;96057.06;;;1.98;95.94
54554;BME280;40450;55.848;-3.572;2023-01-08T10:55:39;96063.55;;;0.53;97.62
54554;BME280;40450;55.848;-3.572;2023-01-08T10:58:13;96080.40;;;-1.08;100.00
54554;BME280;40450;55.848;-3.572;2023-01-08T11:00:40;96082.88;;;-0.58;100.00
54554;BME280;40450;55.848;-3.572;2023-01-08T11:03:22;96087.36;;;-1.91;100.00
54554;BME280;40450;55.848;-3.572;2023-01-08T11:05:42;96051.78;;;-2.44;100.00
54554;BME280;40450;55.848;-3.572;2023-01-08T11:08:16;96034.44;;;-2.53;100.00
54554;BME280;40450;55.848;-3.572;2023-01-08T11:13:16;96032.57;;;-2.36;100.00
54554;BME280;40450;55.848;-3.572;2023-01-08T11:15:44;96016.24;;;-2.40;100.00
54554;BME280;40450;55.848;-3.572;2023-01-08T11:18:18;96017.65;;;-2.58;100.00
54554;BME280;40450;55.848;-3.572;2023-01-08T11:20:44;96003.11;;;-2.68;100.00
54554;BME280;40450;55.848;-3.572;2023-01-08T11:23:18;95988.57;;;-2.25;100.00
54554;BME280;40450;55.848;-3.572;2023-01-08T11:25:53;95976.37;;;-1.77;100.00
54554;BME280;40450;55.848;-3.572;2023-01-08T11:28:20;95984.09;;;-2.29;100.00
54554;BME280;40450;55.848;-3.572;2023-01-08T11:30:52;95984.34;;;-2.07;100.00
54554;BME280;40450;55.848;-3.572;2023-01-08T11:33:20;95991.35;;;-2.19;100.00
54554;BME280;40450;55.848;-3.572;2023-01-08T11:35:49;96000.28;;;-1.79;100.00
54554;BME280;40450;55.848;-3.572;2023-01-08T11:38:17;96014.29;;;-1.96;100.00
54554;BME280;40450;55.848;-3.572;2023-01-08T11:40:52;96014.58;;;-1.55;100.00
54554;BME280;40450;55.848;-3.572;2023-01-08T11:43:25;96008.12;;;-0.59;100.00
54554;BME280;40450;55.848;-3.572;2023-01-08T11:45:58;96015.89;;;-0.18;100.00
54554;BME280;40450;55.848;-3.572;2023-01-08T11:48:30;96013.08;;;-0.35;100.00
54554;BME280;40450;55.848;-3.572;2023-01-08T11:50:58;96017.76;;;-0.18;100.00
54554;BME280;40450;55.848;-3.572;2023-01-08T11:53:24;96016.63;;;-0.46;100.00
54554;BME280;40450;55.848;-3.572;2023-01-08T11:55:57;96016.40;;;-0.03;100.00
54554;BME280;40450;55.848;-3.572;2023-01-08T11:58:27;96011.36;;;0.03;100.00
54554;BME280;40450;55.848;-3.572;2023-01-08T12:00:58;96019.73;;;-1.26;100.00
54554;BME280;40450;55.848;-3.572;2023-01-08T12:03:28;96020.86;;;-1.46;100.00
54554;BME280;40450;55.848;-3.572;2023-01-08T12:05:56;96022.33;;;-1.16;100.00
54554;BME280;40450;55.848;-3.572;2023-01-08T12:08:30;96031.54;;;-2.40;100.00
54554;BME280;40450;55.848;-3.572;2023-01-08T12:11:02;96027.81;;;-2.48;100.00
54554;BME280;40450;55.848;-3.572;2023-01-08T12:16:02;96007.22;;;-2.36;100.00
54554;BME280;40450;55.848;-3.572;2023-01-08T12:18:34;96000.40;;;-1.85;100.00
54554;BME280;40450;55.848;-3.572;2023-01-08T12:20:58;96003.51;;;-2.03;100.00
54554;BME280;40450;55.848;-3.572;2023-01-08T12:23:34;95992.91;;;-1.49;100.00
54554;BME280;40450;55.848;-3.572;2023-01-08T12:26:06;95988.00;;;-1.00;100.00
54554;BME280;40450;55.848;-3.572;2023-01-08T12:28:50;95976.76;;;-0.78;100.00
54554;BME280;40450;55.848;-3.572;2023-01-08T12:31:10;95983.04;;;-0.43;100.00
54554;BME280;40450;55.848;-3.572;2023-01-08T12:33:32;95974.21;;;-0.29;100.00
54554;BME280;40450;55.848;-3.572;2023-01-08T12:36:01;95973.49;;;-0.60;100.00
54554;BME280;40450;55.848;-3.572;2023-01-08T12:38:31;95967.34;;;-1.28;100.00
54554;BME280;40450;55.848;-3.572;2023-01-08T12:40:59;95965.32;;;-1.36;100.00
54554;BME280;40450;55.848;-3.572;2023-01-08T12:43:30;95964.06;;;-1.26;100.00
54554;BME280;40450;55.848;-3.572;2023-01-08T12:45:59;95954.87;;;-1.39;100.00
54554;BME280;40450;55.848;-3.572;2023-01-08T12:48:31;95958.61;;;-0.97;100.00
54554;BME280;40450;55.848;-3.572;2023-01-08T12:51:03;95937.79;;;-1.09;100.00
54554;BME280;40450;55.848;-3.572;2023-01-08T12:53:39;95932.62;;;-1.05;100.00
54554;BME280;40450;55.848;-3.572;2023-01-08T12:56:06;95922.17;;;-1.36;100.00
54554;BME280;40450;55.848;-3.572;2023-01-08T12:58:37;95916.91;;;-2.04;100.00
54554;BME280;40450;55.848;-3.572;2023-01-08T13:01:10;95914.04;;;-2.09;100.00
54554;BME280;40450;55.848;-3.572;2023-01-08T13:03:32;95911.37;;;-3.02;100.00
54554;BME280;40450;55.848;-3.572;2023-01-08T13:06:08;95906.62;;;-2.65;100.00
54554;BME280;40450;55.848;-3.572;2023-01-08T13:08:34;95907.77;;;-1.84;100.00
54554;BME280;40450;55.848;-3.572;2023-01-08T13:11:03;95903.58;;;-2.33;100.00
54554;BME280;40450;55.848;-3.572;2023-01-08T13:13:35;95903.12;;;-1.61;100.00
54554;BME280;40450;55.848;-3.572;2023-01-08T13:18:34;95903.56;;;-1.93;100.00
54554;BME280;40450;55.848;-3.572;2023-01-08T13:21:06;95899.61;;;-2.16;100.00
54554;BME280;40450;55.848;-3.572;2023-01-08T13:23:35;95896.04;;;-1.26;100.00
54554;BME280;40450;55.848;-3.572;2023-01-08T13:26:06;95898.52;;;-1.60;100.00